createdAt,value
2022-12-29T00:00:17.462Z,5.83
2022-12-29T00:02:44.168Z,5.47
2022-12-29T00:05:10.844Z,6.00
2022-12-29T00:07:37.499Z,5.73
2022-12-29T00:10:04.484Z,5.90
2022-12-29T00:12:51.050Z,5.67
2022-12-29T00:15:36.187Z,5.80
2022-12-29T00:18:02.909Z,5.47
2022-12-29T00:20:48.072Z,6.07
2022-12-29T00:23:33.441Z,5.60
2022-12-29T00:26:23.003Z,5.90
2022-12-29T00:29:09.780Z,6.37
2022-12-29T00:31:55.122Z,5.80
2022-12-29T00:34:40.468Z,5.30
2022-12-29T00:37:07.079Z,5.37
2022-12-29T00:39:52.640Z,5.40
2022-12-29T00:42:37.937Z,5.57
2022-12-29T00:45:04.958Z,6.47
2022-12-29T00:47:31.556Z,5.23
2022-12-29T00:49:58.155Z,5.73
2022-12-29T00:52:24.742Z,5.23
2022-12-29T00:54:51.346Z,5.63
2022-12-29T00:57:18.037Z,5.33
2022-12-29T00:59:44.857Z,5.00
2022-12-29T01:02:12.129Z,5.10
2022-12-29T01:04:38.844Z,5.63
2022-12-29T01:07:05.565Z,5.07
2022-12-29T01:09:51.060Z,5.70
2022-12-29T01:12:17.653Z,4.97
2022-12-29T01:14:44.962Z,5.60
2022-12-29T01:17:11.554Z,5.30
2022-12-29T01:19:38.248Z,5.23
2022-12-29T01:22:04.862Z,5.50
2022-12-29T01:24:31.542Z,5.90
2022-12-29T01:26:58.138Z,5.20
2022-12-29T01:29:24.817Z,5.00
2022-12-29T01:31:51.513Z,5.00
2022-12-29T01:34:18.678Z,4.90
2022-12-29T01:36:45.313Z,5.20
2022-12-29T01:39:11.934Z,5.13
2022-12-29T01:41:38.586Z,5.13
2022-12-29T01:44:43.879Z,5.07
2022-12-29T01:47:10.466Z,4.60
2022-12-29T01:49:37.091Z,4.67
2022-12-29T01:52:05.869Z,5.23
2022-12-29T01:54:37.227Z,4.40
2022-12-29T01:57:05.891Z,5.20
2022-12-29T01:59:37.817Z,5.17
2022-12-29T02:02:04.441Z,5.07
2022-12-29T02:04:31.524Z,5.63
2022-12-29T02:07:00.782Z,4.87
2022-12-29T02:09:27.392Z,4.47
2022-12-29T02:11:53.992Z,4.90
2022-12-29T02:14:20.584Z,5.10
2022-12-29T02:17:18.974Z,4.63
2022-12-29T02:20:23.221Z,4.90
2022-12-29T02:22:55.332Z,4.87
2022-12-29T02:25:42.702Z,5.20
2022-12-29T02:28:26.220Z,4.60
2022-12-29T02:30:59.485Z,5.27
2022-12-29T02:33:28.822Z,4.30
2022-12-29T02:35:57.602Z,4.63
2022-12-29T02:38:36.034Z,4.33
2022-12-29T02:41:09.680Z,4.47
2022-12-29T02:43:55.762Z,4.93
2022-12-29T02:46:28.665Z,4.83
2022-12-29T02:49:16.125Z,4.47
2022-12-29T02:51:50.088Z,4.63
2022-12-29T02:54:37.748Z,4.40
2022-12-29T02:57:04.431Z,4.70
2022-12-29T02:59:31.048Z,4.37
2022-12-29T03:02:19.065Z,4.73
2022-12-29T03:05:23.392Z,4.47
2022-12-29T03:08:18.141Z,4.57
2022-12-29T03:11:04.488Z,4.40
2022-12-29T03:14:01.070Z,3.70
2022-12-29T03:16:35.208Z,4.50
2022-12-29T03:19:05.910Z,4.07
2022-12-29T03:21:59.651Z,5.00
2022-12-29T03:24:38.053Z,4.30
2022-12-29T03:27:05.977Z,4.30
2022-12-29T03:29:34.179Z,4.23
2022-12-29T03:32:01.177Z,4.57
2022-12-29T03:34:27.775Z,4.40
2022-12-29T03:37:05.875Z,4.40
2022-12-29T03:39:32.469Z,3.83
2022-12-29T03:42:01.058Z,4.37
2022-12-29T03:44:37.811Z,4.43
2022-12-29T03:47:04.735Z,4.47
2022-12-29T03:49:31.379Z,4.27
2022-12-29T03:51:58.026Z,3.93
2022-12-29T03:54:24.645Z,4.03
2022-12-29T03:56:51.252Z,4.43
2022-12-29T03:59:17.893Z,3.87
2022-12-29T04:01:45.265Z,4.13
2022-12-29T04:04:11.942Z,3.90
2022-12-29T04:06:38.531Z,3.70
2022-12-29T04:09:05.188Z,4.47
2022-12-29T04:11:33.360Z,4.07
2022-12-29T04:14:01.206Z,4.10
2022-12-29T04:16:27.817Z,3.93
2022-12-29T04:18:54.413Z,4.20
2022-12-29T04:21:21.038Z,3.93
2022-12-29T04:23:47.622Z,4.20
2022-12-29T04:26:14.215Z,3.80
2022-12-29T04:28:41.214Z,4.27
2022-12-29T04:31:08.017Z,3.93
2022-12-29T04:33:34.711Z,3.70
2022-12-29T04:36:01.337Z,4.07
2022-12-29T04:38:28.148Z,3.97
2022-12-29T04:40:54.785Z,3.53
2022-12-29T04:43:22.962Z,3.47
2022-12-29T04:45:49.596Z,3.47
2022-12-29T04:48:16.225Z,3.97
2022-12-29T04:50:42.898Z,4.30
2022-12-29T04:53:09.488Z,3.93
2022-12-29T04:55:36.138Z,3.83
2022-12-29T04:58:02.723Z,4.00
2022-12-29T05:00:29.350Z,3.73
2022-12-29T05:02:56.013Z,3.80
2022-12-29T05:05:22.772Z,4.00
2022-12-29T05:07:49.368Z,3.80
2022-12-29T05:10:15.985Z,4.07
2022-12-29T05:12:42.623Z,3.70
2022-12-29T05:15:09.833Z,3.87
2022-12-29T05:17:36.602Z,3.93
2022-12-29T05:20:04.003Z,4.07
2022-12-29T05:22:30.642Z,3.40
2022-12-29T05:24:57.229Z,3.90
2022-12-29T05:27:23.884Z,3.60
2022-12-29T05:29:50.486Z,3.53
2022-12-29T05:32:17.098Z,3.80
2022-12-29T05:34:45.525Z,3.13
2022-12-29T05:37:12.114Z,3.43
2022-12-29T05:39:38.685Z,3.40
2022-12-29T05:42:05.293Z,3.40
2022-12-29T05:44:31.928Z,3.50
2022-12-29T05:46:58.627Z,3.43
2022-12-29T05:49:25.288Z,3.30
2022-12-29T05:51:51.884Z,3.33
2022-12-29T05:54:18.465Z,3.97
2022-12-29T05:56:45.255Z,3.70
2022-12-29T05:59:11.832Z,3.30
2022-12-29T06:01:38.526Z,3.23
2022-12-29T06:04:05.262Z,3.40
2022-12-29T06:06:31.875Z,3.67
2022-12-29T06:08:58.461Z,3.53
2022-12-29T06:11:26.192Z,3.67
2022-12-29T06:13:52.786Z,3.00
2022-12-29T06:16:19.605Z,3.87
2022-12-29T06:18:46.369Z,3.17
2022-12-29T06:21:12.983Z,3.37
2022-12-29T06:23:39.663Z,3.10
2022-12-29T06:26:06.253Z,3.00
2022-12-29T06:28:32.829Z,3.40
2022-12-29T06:30:59.411Z,3.30
2022-12-29T06:33:26.005Z,3.60
2022-12-29T06:35:52.595Z,3.00
2022-12-29T06:38:19.198Z,3.40
2022-12-29T06:40:46.039Z,3.13
2022-12-29T06:43:12.912Z,3.23
2022-12-29T06:45:40.991Z,3.37
2022-12-29T06:48:08.284Z,3.27
2022-12-29T06:50:34.888Z,3.00
2022-12-29T06:53:01.477Z,3.37
2022-12-29T06:55:29.165Z,3.13
2022-12-29T06:57:59.150Z,3.00
2022-12-29T07:00:26.077Z,2.73
2022-12-29T07:02:53.218Z,3.00
2022-12-29T07:05:19.969Z,3.07
2022-12-29T07:07:46.803Z,2.80
2022-12-29T07:10:13.415Z,3.00
2022-12-29T07:12:40.026Z,3.40
2022-12-29T07:15:07.085Z,3.60
2022-12-29T07:17:33.820Z,3.10
2022-12-29T07:20:00.463Z,2.90
2022-12-29T07:22:27.079Z,2.80
2022-12-29T07:24:53.652Z,3.33
2022-12-29T07:27:20.255Z,3.17
2022-12-29T07:29:46.848Z,3.00
2022-12-29T07:32:13.528Z,3.03
2022-12-29T07:34:40.681Z,2.80
2022-12-29T07:37:07.338Z,3.40
2022-12-29T07:39:33.926Z,3.20
2022-12-29T07:42:04.818Z,3.30
2022-12-29T07:44:31.605Z,3.13
2022-12-29T07:46:59.158Z,3.63
2022-12-29T07:49:25.974Z,3.10
2022-12-29T07:51:52.903Z,3.00
2022-12-29T07:54:19.571Z,2.77
2022-12-29T07:56:46.360Z,2.73
2022-12-29T07:59:15.605Z,2.93
2022-12-29T08:01:42.282Z,3.10
2022-12-29T08:04:09.079Z,2.70
2022-12-29T08:06:35.745Z,3.20
2022-12-29T08:09:09.919Z,2.83
2022-12-29T08:11:39.329Z,3.43
2022-12-29T08:14:05.988Z,3.03
2022-12-29T08:16:33.485Z,3.13
2022-12-29T08:19:00.315Z,3.67
2022-12-29T08:21:28.526Z,2.73
2022-12-29T08:23:55.261Z,0.80
2022-12-29T08:26:21.873Z,0.67
2022-12-29T08:28:48.502Z,0.70
2022-12-29T08:31:15.113Z,0.80
2022-12-29T08:33:41.840Z,0.70
2022-12-29T08:36:09.215Z,0.90
2022-12-29T08:38:35.809Z,0.70
2022-12-29T08:41:02.404Z,1.10
2022-12-29T08:43:29.086Z,1.97
2022-12-29T08:45:55.765Z,1.57
2022-12-29T08:48:23.126Z,1.70
2022-12-29T08:50:50.303Z,1.10
2022-12-29T08:53:16.991Z,1.33
2022-12-29T08:55:43.568Z,1.23
2022-12-29T08:58:10.825Z,1.30
2022-12-29T09:00:37.407Z,1.33
2022-12-29T09:03:04.337Z,1.40
2022-12-29T09:05:31.023Z,1.30
2022-12-29T09:07:57.608Z,1.20
2022-12-29T09:10:24.460Z,1.10
2022-12-29T09:12:51.078Z,1.43
2022-12-29T09:15:17.671Z,1.20
2022-12-29T09:17:44.649Z,1.00
2022-12-29T09:20:15.590Z,1.00
2022-12-29T09:22:42.351Z,1.80
2022-12-29T09:25:10.102Z,1.67
2022-12-29T09:27:37.097Z,1.30
2022-12-29T09:30:05.078Z,1.40
2022-12-29T09:32:34.018Z,1.53
2022-12-29T09:35:01.580Z,1.10
2022-12-29T09:37:28.293Z,1.20
2022-12-29T09:39:54.963Z,1.10
2022-12-29T09:42:36.357Z,1.27
2022-12-29T09:45:14.762Z,1.30
2022-12-29T09:47:42.840Z,1.10
2022-12-29T09:50:24.248Z,1.30
2022-12-29T09:53:16.160Z,1.20
2022-12-29T09:55:48.068Z,1.17
2022-12-29T09:58:22.625Z,1.03
2022-12-29T10:01:09.012Z,1.20
2022-12-29T10:03:50.430Z,0.80
2022-12-29T10:06:19.202Z,1.10
2022-12-29T10:09:03.722Z,1.20
2022-12-29T10:11:58.359Z,1.20
2022-12-29T10:14:48.125Z,1.10
2022-12-29T10:17:40.904Z,1.53
2022-12-29T10:20:17.388Z,1.80
2022-12-29T10:23:10.204Z,1.57
2022-12-29T10:25:39.276Z,1.80
2022-12-29T10:28:11.268Z,1.43
2022-12-29T10:30:37.857Z,2.30
2022-12-29T10:33:06.848Z,1.63
2022-12-29T10:35:39.863Z,1.40
2022-12-29T10:38:12.264Z,1.40
2022-12-29T10:40:51.989Z,1.60
2022-12-29T10:43:52.141Z,1.80
2022-12-29T10:46:24.518Z,1.47
2022-12-29T10:48:51.188Z,1.50
2022-12-29T10:51:25.956Z,1.50
2022-12-29T10:54:14.551Z,1.53
2022-12-29T10:56:48.675Z,1.73
2022-12-29T10:59:31.234Z,1.80
2022-12-29T11:02:04.169Z,1.30
2022-12-29T11:04:42.296Z,1.50
2022-12-29T11:07:15.011Z,1.70
2022-12-29T11:09:43.391Z,1.87
2022-12-29T11:12:30.028Z,1.90
2022-12-29T11:15:08.785Z,1.70
2022-12-29T11:17:48.096Z,1.90
2022-12-29T11:20:20.820Z,1.67
2022-12-29T11:22:47.403Z,1.87
2022-12-29T11:25:14.117Z,1.43
2022-12-29T11:27:43.091Z,1.70
2022-12-29T11:30:24.325Z,2.13
2022-12-29T11:32:54.502Z,1.80
2022-12-29T11:35:56.911Z,2.13
2022-12-29T11:38:25.929Z,1.40
2022-12-29T11:40:52.588Z,1.90
2022-12-29T11:43:27.428Z,1.47
2022-12-29T11:45:54.839Z,1.60
2022-12-29T11:48:21.552Z,1.63
2022-12-29T11:50:55.101Z,1.67
2022-12-29T11:53:23.952Z,1.80
2022-12-29T11:55:58.349Z,1.40
2022-12-29T11:58:36.227Z,1.60
2022-12-29T12:01:24.210Z,1.80
2022-12-29T12:04:17.694Z,1.60
2022-12-29T12:06:51.597Z,1.30
2022-12-29T12:09:23.626Z,1.40
2022-12-29T12:11:50.232Z,1.73
2022-12-29T12:14:20.827Z,1.40
2022-12-29T12:16:49.551Z,1.53
2022-12-29T12:19:21.750Z,1.40
2022-12-29T12:21:51.392Z,1.33
2022-12-29T12:24:37.015Z,1.20
2022-12-29T12:27:24.999Z,1.90
2022-12-29T12:30:04.091Z,1.77
2022-12-29T12:32:44.054Z,1.30
2022-12-29T12:35:21.371Z,1.23
2022-12-29T12:37:54.916Z,1.57
2022-12-29T12:40:30.499Z,1.17
2022-12-29T12:43:22.510Z,1.30
2022-12-29T12:46:16.944Z,1.47
2022-12-29T12:48:55.480Z,1.50
2022-12-29T12:51:43.473Z,1.10
2022-12-29T12:54:44.914Z,1.20
2022-12-29T12:57:14.211Z,1.17
2022-12-29T13:00:19.643Z,1.33
2022-12-29T13:03:02.554Z,1.30
2022-12-29T13:05:45.178Z,1.23
2022-12-29T13:08:30.314Z,1.60
2022-12-29T13:11:15.179Z,1.30
2022-12-29T13:14:16.351Z,1.13
2022-12-29T13:17:03.814Z,1.37
2022-12-29T13:19:50.768Z,1.13
2022-12-29T13:22:37.395Z,1.10
2022-12-29T13:25:22.033Z,1.20
2022-12-29T13:28:01.557Z,1.10
2022-12-29T13:30:32.946Z,1.17
2022-12-29T13:33:20.908Z,1.13
2022-12-29T13:36:06.155Z,1.07
2022-12-29T13:38:40.422Z,1.30
2022-12-29T13:41:14.810Z,1.33
2022-12-29T13:43:43.021Z,1.00
2022-12-29T13:46:16.991Z,1.10
2022-12-29T13:48:59.013Z,1.20
2022-12-29T13:51:28.447Z,1.10
2022-12-29T13:54:01.759Z,1.20
2022-12-29T13:56:41.812Z,1.10
2022-12-29T13:59:18.289Z,1.40
2022-12-29T14:01:51.076Z,1.43
2022-12-29T14:04:26.048Z,1.37
2022-12-29T14:07:14.085Z,1.40
2022-12-29T14:09:48.386Z,1.80
2022-12-29T14:12:28.032Z,1.50
2022-12-29T14:14:54.665Z,1.60
2022-12-29T14:17:21.738Z,1.70
2022-12-29T14:19:52.219Z,1.70
2022-12-29T14:22:32.614Z,1.33
2022-12-29T14:24:59.827Z,1.30
2022-12-29T14:27:29.410Z,1.60
2022-12-29T14:29:55.998Z,1.33
2022-12-29T14:32:25.452Z,1.33
2022-12-29T14:34:53.081Z,1.73
2022-12-29T14:37:27.506Z,2.17
2022-12-29T14:40:23.110Z,1.53
2022-12-29T14:42:50.546Z,1.40
2022-12-29T14:45:17.624Z,1.50
2022-12-29T14:47:45.585Z,1.73
2022-12-29T14:50:12.365Z,1.53
2022-12-29T14:53:02.500Z,1.90
2022-12-29T14:55:31.590Z,1.53
2022-12-29T14:58:02.397Z,1.50
2022-12-29T15:00:32.315Z,1.37
2022-12-29T15:03:06.507Z,1.47
2022-12-29T15:05:45.365Z,1.50
2022-12-29T15:08:12.417Z,1.40
2022-12-29T15:10:46.358Z,1.23
2022-12-29T15:13:18.386Z,1.50
2022-12-29T15:15:45.038Z,1.43
2022-12-29T15:18:15.519Z,1.30
2022-12-29T15:20:42.101Z,1.17
2022-12-29T15:23:12.560Z,1.77
2022-12-29T15:25:56.745Z,1.63
2022-12-29T15:28:23.418Z,1.30
2022-12-29T15:31:03.631Z,1.30
2022-12-29T15:33:30.270Z,1.00
2022-12-29T15:35:57.954Z,1.60
2022-12-29T15:38:33.437Z,1.37
2022-12-29T15:41:06.737Z,1.43
2022-12-29T15:43:54.347Z,1.73
2022-12-29T15:46:21.013Z,1.40
2022-12-29T15:48:47.654Z,1.50
2022-12-29T15:51:22.303Z,1.53
2022-12-29T15:53:50.430Z,1.23
2022-12-29T15:56:17.032Z,1.13
2022-12-29T15:58:49.561Z,1.43
2022-12-29T16:01:30.954Z,1.10
2022-12-29T16:03:59.626Z,1.43
2022-12-29T16:06:36.914Z,1.60
2022-12-29T16:09:17.051Z,1.20
2022-12-29T16:11:48.935Z,1.10
2022-12-29T16:14:17.618Z,1.57
2022-12-29T16:16:44.728Z,1.30
2022-12-29T16:19:35.674Z,1.20
2022-12-29T16:22:03.307Z,1.40
2022-12-29T16:24:33.415Z,1.10
2022-12-29T16:27:06.038Z,1.30
2022-12-29T16:29:32.661Z,1.20
2022-12-29T16:32:05.633Z,1.60
2022-12-29T16:34:38.296Z,1.30
2022-12-29T16:37:20.403Z,1.40
2022-12-29T16:39:47.047Z,1.43
2022-12-29T16:42:45.621Z,1.10
2022-12-29T16:45:21.805Z,1.17
2022-12-29T16:47:51.452Z,1.40
2022-12-29T16:50:28.233Z,1.23
2022-12-29T16:52:55.291Z,1.27
2022-12-29T16:55:21.872Z,1.37
2022-12-29T16:57:49.257Z,1.40
2022-12-29T17:00:20.688Z,1.30
2022-12-29T17:02:47.854Z,1.40
2022-12-29T17:05:15.340Z,1.30
2022-12-29T17:07:41.936Z,1.13
2022-12-29T17:10:08.802Z,1.43
2022-12-29T17:12:35.703Z,1.27
2022-12-29T17:15:06.005Z,1.40
2022-12-29T17:17:39.650Z,1.30
2022-12-29T17:20:16.769Z,1.30
2022-12-29T17:22:43.443Z,1.27
2022-12-29T17:25:14.226Z,1.50
2022-12-29T17:27:45.565Z,1.43
2022-12-29T17:30:13.829Z,1.53
2022-12-29T17:32:41.318Z,1.87
2022-12-29T17:35:17.078Z,1.93
2022-12-29T17:37:43.784Z,1.33
2022-12-29T17:40:43.487Z,1.30
2022-12-29T17:43:10.100Z,1.57
2022-12-29T17:45:36.750Z,1.23
2022-12-29T17:48:05.228Z,1.60
2022-12-29T17:50:31.823Z,1.27
2022-12-29T17:53:01.280Z,1.40
2022-12-29T17:55:36.841Z,1.83
2022-12-29T17:58:27.414Z,1.50
2022-12-29T18:00:55.948Z,1.60
2022-12-29T18:03:33.397Z,1.53
2022-12-29T18:06:00.250Z,1.40
2022-12-29T18:08:28.531Z,1.27
2022-12-29T18:10:55.274Z,1.30
2022-12-29T18:13:24.106Z,1.47
2022-12-29T18:15:51.588Z,1.40
2022-12-29T18:18:19.930Z,1.77
2022-12-29T18:20:46.945Z,1.60
2022-12-29T18:23:25.382Z,1.30
2022-12-29T18:25:59.070Z,1.67
2022-12-29T18:28:25.899Z,1.77
2022-12-29T18:30:52.753Z,1.53
2022-12-29T18:33:23.390Z,1.30
2022-12-29T18:36:02.006Z,1.40
2022-12-29T18:38:29.627Z,1.30
2022-12-29T18:40:56.603Z,1.90
2022-12-29T18:43:23.266Z,1.47
2022-12-29T18:45:49.866Z,1.80
2022-12-29T18:48:17.336Z,1.90
2022-12-29T18:50:44.261Z,2.03
2022-12-29T18:53:24.105Z,1.70
2022-12-29T18:55:54.187Z,1.70
2022-12-29T18:58:20.784Z,2.00
2022-12-29T19:00:47.587Z,1.53
2022-12-29T19:03:15.751Z,1.77
2022-12-29T19:05:43.281Z,1.60
2022-12-29T19:08:10.368Z,1.70
2022-12-29T19:10:37.074Z,1.63
2022-12-29T19:13:03.840Z,1.30
2022-12-29T19:15:35.386Z,1.57
2022-12-29T19:20:50.790Z,1.50
2022-12-29T19:23:19.700Z,1.40
2022-12-29T19:25:46.546Z,1.87
2022-12-29T19:28:20.938Z,1.77
2022-12-29T19:30:51.922Z,1.73
2022-12-29T19:33:19.977Z,2.40
2022-12-29T19:35:46.585Z,1.60
2022-12-29T19:38:13.262Z,1.70
2022-12-29T19:40:43.931Z,2.20
2022-12-29T19:43:12.093Z,1.50
2022-12-29T19:45:40.367Z,2.10
2022-12-29T19:48:07.834Z,1.80
2022-12-29T19:50:34.753Z,1.77
2022-12-29T19:53:05.354Z,1.70
2022-12-29T19:55:32.530Z,1.77
2022-12-29T19:57:59.212Z,1.27
2022-12-29T20:00:25.809Z,1.50
2022-12-29T20:02:52.560Z,1.50
2022-12-29T20:05:19.621Z,1.70
2022-12-29T20:07:46.225Z,1.77
2022-12-29T20:10:12.854Z,1.60
2022-12-29T20:12:39.466Z,1.60
2022-12-29T20:15:07.367Z,1.60
2022-12-29T20:18:10.862Z,1.57
2022-12-29T20:20:20.573Z,1.70
2022-12-29T20:22:47.175Z,1.73
2022-12-29T20:28:00.377Z,1.53
2022-12-29T20:30:26.964Z,1.50
2022-12-29T20:32:53.559Z,1.87
2022-12-29T20:35:20.152Z,1.80
2022-12-29T20:37:46.790Z,1.87
2022-12-29T20:40:13.415Z,1.67
2022-12-29T20:42:40.040Z,1.70
2022-12-29T20:45:06.727Z,1.80
2022-12-29T20:47:33.313Z,2.00
2022-12-29T20:49:59.913Z,1.80
2022-12-29T20:52:26.658Z,1.93
2022-12-29T20:54:53.336Z,1.40
2022-12-29T20:57:20.051Z,1.77
2022-12-29T20:59:46.674Z,1.87
2022-12-29T21:02:23.280Z,1.57
2022-12-29T21:05:23.378Z,1.50
2022-12-29T21:07:36.719Z,1.53
2022-12-29T21:10:03.503Z,1.47
2022-12-29T21:12:30.084Z,1.60
2022-12-29T21:14:56.763Z,1.40
2022-12-29T21:17:23.375Z,1.53
2022-12-29T21:19:50.267Z,1.50
2022-12-29T21:22:16.851Z,1.50
2022-12-29T21:24:43.437Z,1.43
2022-12-29T21:27:10.030Z,1.50
2022-12-29T21:29:36.643Z,1.40
2022-12-29T21:32:06.385Z,1.20
2022-12-29T21:34:34.367Z,1.60
2022-12-29T21:37:00.979Z,1.20
2022-12-29T21:39:27.680Z,1.40
2022-12-29T21:41:59.704Z,1.20
2022-12-29T21:44:45.482Z,1.50
2022-12-29T21:47:12.122Z,1.30
2022-12-29T21:49:38.748Z,1.47
2022-12-29T21:52:05.463Z,1.80
2022-12-29T21:54:50.569Z,2.00
2022-12-29T21:57:37.738Z,1.60
2022-12-29T22:00:26.983Z,1.37
2022-12-29T22:03:20.127Z,1.50
2022-12-29T22:06:07.975Z,1.30
2022-12-29T22:08:53.300Z,1.57
2022-12-29T22:11:38.597Z,1.57
2022-12-29T22:14:06.312Z,1.50
2022-12-29T22:16:33.031Z,1.23
2022-12-29T22:18:59.643Z,1.37
2022-12-29T22:21:26.265Z,1.50
2022-12-29T22:23:53.056Z,1.70
2022-12-29T22:26:19.673Z,1.60
2022-12-29T22:28:47.882Z,1.40
2022-12-29T22:31:29.191Z,1.40
2022-12-29T22:34:00.128Z,1.80
2022-12-29T22:36:26.914Z,1.50
2022-12-29T22:38:53.596Z,1.60
2022-12-29T22:41:20.285Z,1.33
2022-12-29T22:43:46.892Z,1.53
2022-12-29T22:46:13.946Z,1.13
2022-12-29T22:48:40.788Z,1.27
2022-12-29T22:51:07.448Z,1.50
2022-12-29T22:53:34.094Z,1.60
2022-12-29T22:56:04.542Z,1.20
2022-12-29T22:58:31.126Z,1.70
2022-12-29T23:00:57.709Z,1.60
2022-12-29T23:03:24.409Z,1.37
2022-12-29T23:06:03.970Z,1.57
2022-12-29T23:08:35.114Z,1.43
2022-12-29T23:11:01.795Z,1.13
2022-12-29T23:13:28.400Z,1.23
2022-12-29T23:15:55.085Z,1.57
2022-12-29T23:18:21.753Z,1.63
2022-12-29T23:20:48.854Z,1.47
2022-12-29T23:23:36.238Z,1.20
2022-12-29T23:26:02.915Z,1.33
2022-12-29T23:28:29.509Z,1.30
2022-12-29T23:30:56.150Z,1.20
2022-12-29T23:33:22.821Z,1.50
2022-12-29T23:35:49.733Z,1.33
2022-12-29T23:38:16.342Z,1.30
2022-12-29T23:40:42.916Z,1.40
2022-12-29T23:43:09.504Z,1.40
2022-12-29T23:45:36.686Z,1.30
2022-12-29T23:48:03.414Z,1.40
2022-12-29T23:50:30.058Z,1.33
2022-12-29T23:52:56.649Z,1.63
2022-12-29T23:55:23.257Z,1.30
2022-12-29T23:57:49.841Z,1.37
